createdAt,value
2023-01-30T00:01:32.741Z,101866.06
2023-01-30T00:03:59.816Z,101865.09
2023-01-30T00:06:27.018Z,101857.63
2023-01-30T00:08:53.685Z,101878.53
2023-01-30T00:11:20.991Z,101746.06
2023-01-30T00:13:49.658Z,101809.88
2023-01-30T00:16:19.486Z,101850.41
2023-01-30T00:18:46.260Z,101846.75
2023-01-30T00:21:17.342Z,101831.06
2023-01-30T00:23:44.795Z,101842.28
2023-01-30T00:26:12.446Z,101825.63
2023-01-30T00:28:39.854Z,101837.47
2023-01-30T00:31:07.085Z,101838.25
2023-01-30T00:33:33.701Z,101839.97
2023-01-30T00:36:05.557Z,101839.88
2023-01-30T00:38:32.205Z,101830.81
2023-01-30T00:40:58.829Z,101829.84
2023-01-30T00:43:43.895Z,101833.31
2023-01-30T00:46:44.829Z,101829.66
2023-01-30T00:49:11.554Z,101829.03
2023-01-30T00:51:38.869Z,101826.63
2023-01-30T00:54:05.472Z,101811.00
2023-01-30T00:56:32.196Z,101818.31
2023-01-30T00:58:58.748Z,101823.66
2023-01-30T01:01:25.576Z,101819.03
2023-01-30T01:03:54.522Z,101811.78
2023-01-30T01:06:23.625Z,101804.78
2023-01-30T01:08:50.211Z,101806.06
2023-01-30T01:11:24.524Z,101783.91
2023-01-30T01:13:53.775Z,101795.84
2023-01-30T01:16:20.828Z,101798.44
2023-01-30T01:18:50.193Z,101769.19
2023-01-30T01:21:19.295Z,101726.25
2023-01-30T01:23:59.054Z,101796.22
2023-01-30T01:26:28.341Z,101797.97
2023-01-30T01:28:57.062Z,101781.53
2023-01-30T01:31:24.505Z,101785.09
2023-01-30T01:33:51.792Z,101783.16
2023-01-30T01:36:42.438Z,101782.19
2023-01-30T01:39:06.410Z,101767.56
2023-01-30T01:41:33.024Z,101768.34
2023-01-30T01:44:04.138Z,101762.84
2023-01-30T01:46:45.417Z,101749.19
2023-01-30T01:49:21.657Z,101737.84
2023-01-30T01:52:04.070Z,101741.25
2023-01-30T01:54:48.033Z,101743.34
2023-01-30T01:57:35.569Z,101744.13
2023-01-30T02:00:12.559Z,101730.88
2023-01-30T02:02:48.025Z,101724.66
2023-01-30T02:05:17.764Z,101731.44
2023-01-30T02:07:55.588Z,101713.53
2023-01-30T02:10:33.543Z,101726.38
2023-01-30T02:13:00.122Z,101710.22
2023-01-30T02:15:26.768Z,101717.84
2023-01-30T02:17:53.483Z,101691.25
2023-01-30T02:20:56.756Z,101648.03
2023-01-30T02:23:35.655Z,101708.03
2023-01-30T02:26:32.466Z,101711.41
2023-01-30T02:29:20.844Z,101712.19
2023-01-30T02:31:56.309Z,101723.69
2023-01-30T02:34:37.953Z,101721.63
2023-01-30T02:37:22.222Z,101705.91
2023-01-30T02:40:18.069Z,101703.75
2023-01-30T02:42:57.148Z,101689.84
2023-01-30T02:45:36.420Z,101701.72
2023-01-30T02:48:23.412Z,101695.94
2023-01-30T02:50:57.080Z,101685.88
2023-01-30T02:53:24.038Z,101664.72
2023-01-30T02:55:52.955Z,101608.34
2023-01-30T02:58:24.040Z,101682.88
2023-01-30T03:01:18.683Z,101672.88
2023-01-30T03:04:06.362Z,101672.88
2023-01-30T03:06:59.065Z,101671.03
2023-01-30T03:09:45.349Z,101667.66
2023-01-30T03:12:22.130Z,101667.44
2023-01-30T03:14:59.268Z,101664.63
2023-01-30T03:17:27.348Z,101636.53
2023-01-30T03:19:57.390Z,101653.34
2023-01-30T03:22:26.285Z,101647.59
2023-01-30T03:24:54.559Z,101602.31
2023-01-30T03:27:22.272Z,101632.06
2023-01-30T03:29:51.116Z,101657.03
2023-01-30T03:32:17.720Z,101656.19
2023-01-30T03:34:44.309Z,101644.53
2023-01-30T03:37:10.993Z,101641.59
2023-01-30T03:39:37.636Z,101637.81
2023-01-30T03:42:04.468Z,101628.94
2023-01-30T03:44:31.152Z,101631.75
2023-01-30T03:47:02.478Z,101630.44
2023-01-30T03:49:29.085Z,101637.63
2023-01-30T03:51:55.674Z,101644.75
2023-01-30T03:54:24.509Z,101638.25
2023-01-30T03:56:51.059Z,101647.38
2023-01-30T03:59:17.662Z,101625.34
2023-01-30T04:01:44.326Z,101646.28
2023-01-30T04:04:10.948Z,101652.47
2023-01-30T04:06:39.999Z,101651.41
2023-01-30T04:09:06.523Z,101641.50
2023-01-30T04:11:33.087Z,101644.13
2023-01-30T04:13:59.666Z,101617.75
2023-01-30T04:16:27.599Z,101642.16
2023-01-30T04:18:54.336Z,101617.31
2023-01-30T04:21:21.346Z,101640.22
2023-01-30T04:23:48.042Z,101621.97
2023-01-30T04:26:17.223Z,101639.00
2023-01-30T04:28:44.663Z,101646.28
2023-01-30T04:31:11.706Z,101623.28
2023-01-30T04:33:39.986Z,101644.34
2023-01-30T04:36:08.752Z,101627.94
2023-01-30T04:38:36.211Z,101636.97
2023-01-30T04:41:03.833Z,101528.78
2023-01-30T04:43:31.319Z,101636.72
2023-01-30T04:45:58.363Z,101625.66
2023-01-30T04:48:25.932Z,101626.31
2023-01-30T04:50:54.883Z,101615.59
2023-01-30T04:53:24.159Z,101629.56
2023-01-30T04:55:51.233Z,101620.69
2023-01-30T04:58:20.764Z,101624.38
2023-01-30T05:00:48.246Z,101651.50
2023-01-30T05:03:15.418Z,101644.09
2023-01-30T05:05:42.056Z,101640.53
2023-01-30T05:08:11.332Z,101655.59
2023-01-30T05:10:40.439Z,101652.91
2023-01-30T05:13:07.340Z,101632.19
2023-01-30T05:15:34.067Z,101640.22
2023-01-30T05:18:03.141Z,101625.22
2023-01-30T05:20:29.726Z,101638.16
2023-01-30T05:22:58.697Z,101608.41
2023-01-30T05:25:27.551Z,101591.47
2023-01-30T05:27:54.111Z,101635.88
2023-01-30T05:30:20.770Z,101626.66
2023-01-30T05:32:47.361Z,101643.47
2023-01-30T05:35:14.075Z,101645.00
2023-01-30T05:37:42.848Z,101644.75
2023-01-30T05:40:10.157Z,101643.78
2023-01-30T05:42:36.723Z,101641.72
2023-01-30T05:45:03.460Z,101645.97
2023-01-30T05:47:32.994Z,101631.75
2023-01-30T05:49:59.651Z,101626.88
2023-01-30T05:52:26.289Z,101547.88
2023-01-30T05:54:52.927Z,101647.91
2023-01-30T05:57:19.552Z,101636.09
2023-01-30T05:59:46.130Z,101663.22
2023-01-30T06:02:12.740Z,101671.25
2023-01-30T06:04:39.345Z,101665.72
2023-01-30T06:07:06.011Z,101668.13
2023-01-30T06:09:37.495Z,101675.41
2023-01-30T06:12:04.280Z,101679.28
2023-01-30T06:14:30.845Z,101673.75
2023-01-30T06:16:57.518Z,101690.81
2023-01-30T06:19:24.224Z,101691.69
2023-01-30T06:21:50.863Z,101692.53
2023-01-30T06:24:17.484Z,101694.72
2023-01-30T06:26:46.418Z,101697.75
2023-01-30T06:29:13.112Z,101682.88
2023-01-30T06:31:42.110Z,101710.91
2023-01-30T06:34:12.022Z,101696.00
2023-01-30T06:36:38.582Z,101706.63
2023-01-30T06:39:05.227Z,101694.69
2023-01-30T06:41:31.982Z,101699.78
2023-01-30T06:43:58.605Z,101709.09
2023-01-30T06:46:25.382Z,101694.13
2023-01-30T06:48:52.020Z,101705.63
2023-01-30T06:51:20.836Z,101684.56
2023-01-30T06:53:47.543Z,101690.78
2023-01-30T06:56:14.130Z,101681.81
2023-01-30T06:58:40.701Z,101697.56
2023-01-30T07:01:07.295Z,101697.66
2023-01-30T07:03:34.003Z,101700.47
2023-01-30T07:06:02.980Z,101693.56
2023-01-30T07:08:29.623Z,101706.22
2023-01-30T07:10:56.221Z,101709.13
2023-01-30T07:13:22.848Z,101713.16
2023-01-30T07:15:49.385Z,101654.66
2023-01-30T07:18:18.212Z,101716.34
2023-01-30T07:20:48.970Z,101713.75
2023-01-30T07:23:18.178Z,101712.44
2023-01-30T07:25:44.924Z,101719.56
2023-01-30T07:28:11.528Z,101715.84
2023-01-30T07:30:38.221Z,101727.25
2023-01-30T07:33:06.674Z,101680.69
2023-01-30T07:35:36.442Z,101744.41
2023-01-30T07:38:03.430Z,101746.22
2023-01-30T07:40:29.975Z,101717.53
2023-01-30T07:42:58.690Z,101744.41
2023-01-30T07:45:26.557Z,101742.75
2023-01-30T07:47:56.027Z,101755.25
2023-01-30T07:50:22.850Z,101753.69
2023-01-30T07:52:51.876Z,101746.22
2023-01-30T07:55:18.818Z,101753.50
2023-01-30T07:57:47.822Z,101767.03
2023-01-30T08:00:15.058Z,101756.75
2023-01-30T08:02:41.745Z,101730.59
2023-01-30T08:05:08.812Z,101761.78
2023-01-30T08:07:35.515Z,101747.47
2023-01-30T08:10:02.202Z,101737.22
2023-01-30T08:12:29.208Z,101761.13
2023-01-30T08:14:55.985Z,101781.53
2023-01-30T08:17:24.947Z,101779.81
2023-01-30T08:19:51.623Z,101786.84
2023-01-30T08:22:18.219Z,101760.94
2023-01-30T08:24:44.820Z,101766.81
2023-01-30T08:27:11.503Z,101760.47
2023-01-30T08:29:38.149Z,101776.00
2023-01-30T08:32:04.984Z,101777.66
2023-01-30T08:34:31.928Z,101791.97
2023-01-30T08:36:58.544Z,101763.84
2023-01-30T08:39:25.122Z,101802.63
2023-01-30T08:41:51.731Z,101772.84
2023-01-30T08:44:18.649Z,101789.81
2023-01-30T08:46:45.294Z,101804.28
2023-01-30T08:49:12.133Z,101794.69
2023-01-30T08:51:38.725Z,101789.72
2023-01-30T08:54:07.640Z,101787.91
2023-01-30T08:56:35.013Z,101762.38
2023-01-30T08:59:01.963Z,101828.72
2023-01-30T09:01:28.801Z,101785.22
2023-01-30T09:03:57.483Z,101826.41
2023-01-30T09:06:26.185Z,101822.47
2023-01-30T09:08:52.942Z,101837.69
2023-01-30T09:11:19.725Z,101840.22
2023-01-30T09:13:49.783Z,101844.34
2023-01-30T09:16:18.845Z,101837.75
2023-01-30T09:18:47.760Z,101827.56
2023-01-30T09:21:14.690Z,101840.81
2023-01-30T09:23:41.560Z,101845.69
2023-01-30T09:26:08.618Z,101818.66
2023-01-30T09:28:35.772Z,101854.91
2023-01-30T09:31:03.103Z,101819.94
2023-01-30T09:33:30.356Z,101810.09
2023-01-30T09:35:57.153Z,101846.69
2023-01-30T09:38:23.748Z,101871.03
2023-01-30T09:40:59.366Z,101856.59
2023-01-30T09:44:13.245Z,101847.09
2023-01-30T09:47:04.880Z,101840.19
2023-01-30T09:49:53.164Z,101863.53
2023-01-30T09:52:58.135Z,101873.66
2023-01-30T09:55:30.188Z,101870.28
2023-01-30T09:58:01.069Z,101876.59
2023-01-30T10:00:30.393Z,101871.03
2023-01-30T10:03:04.981Z,101835.50
2023-01-30T10:05:37.190Z,101795.22
2023-01-30T10:08:37.375Z,101884.41
2023-01-30T10:11:21.893Z,101871.13
2023-01-30T10:14:02.968Z,101873.22
2023-01-30T10:17:07.964Z,101864.53
2023-01-30T10:19:41.303Z,101909.00
2023-01-30T10:22:48.460Z,101867.34
2023-01-30T10:25:43.608Z,101903.16
2023-01-30T10:28:19.307Z,101909.66
2023-01-30T10:30:55.504Z,101911.41
2023-01-30T10:33:30.807Z,101925.66
2023-01-30T10:36:10.654Z,101917.50
2023-01-30T10:38:53.683Z,101922.72
2023-01-30T10:41:56.884Z,101914.78
2023-01-30T10:44:24.437Z,101915.53
2023-01-30T10:47:47.052Z,101931.41
2023-01-30T10:50:43.939Z,101933.06
2023-01-30T10:53:21.533Z,101925.88
2023-01-30T10:55:59.459Z,101929.25
2023-01-30T10:58:58.588Z,101926.31
2023-01-30T11:01:40.008Z,101925.22
2023-01-30T11:04:22.288Z,101878.34
2023-01-30T11:06:49.629Z,101919.34
2023-01-30T11:09:18.670Z,101934.88
2023-01-30T11:11:54.638Z,101942.16
2023-01-30T11:14:21.678Z,101933.44
2023-01-30T11:16:51.628Z,101903.84
2023-01-30T11:19:22.916Z,101925.34
2023-01-30T11:22:00.439Z,101913.81
2023-01-30T11:24:32.751Z,101924.13
2023-01-30T11:27:21.868Z,101924.91
2023-01-30T11:29:50.373Z,101900.78
2023-01-30T11:32:26.228Z,101928.28
2023-01-30T11:35:26.604Z,101929.47
2023-01-30T11:37:53.661Z,101930.50
2023-01-30T11:40:28.474Z,101913.31
2023-01-30T11:43:12.795Z,101927.78
2023-01-30T11:45:47.134Z,101928.75
2023-01-30T11:48:33.314Z,101898.31
2023-01-30T11:51:11.166Z,101932.66
2023-01-30T11:53:54.524Z,101923.38
2023-01-30T11:56:29.892Z,101900.03
2023-01-30T11:59:03.010Z,101932.28
2023-01-30T12:01:33.071Z,101936.34
2023-01-30T12:04:00.627Z,101932.16
2023-01-30T12:06:40.275Z,101931.66
2023-01-30T12:09:34.905Z,101935.50
2023-01-30T12:12:01.667Z,101920.59
2023-01-30T12:14:49.481Z,101933.03
2023-01-30T12:17:36.488Z,101931.47
2023-01-30T12:20:17.934Z,101927.88
2023-01-30T12:22:52.360Z,101923.19
2023-01-30T12:25:35.792Z,101912.59
2023-01-30T12:28:11.260Z,101910.53
2023-01-30T12:30:50.575Z,101919.56
2023-01-30T12:36:09.745Z,101951.94
2023-01-30T12:39:06.607Z,101949.34
2023-01-30T12:41:56.685Z,101944.88
2023-01-30T12:44:52.488Z,101941.09
2023-01-30T12:47:22.282Z,101950.41
2023-01-30T12:50:00.710Z,101957.06
2023-01-30T12:52:45.493Z,101947.63
2023-01-30T12:55:30.685Z,101962.72
2023-01-30T12:58:05.726Z,101965.41
2023-01-30T13:00:38.154Z,101961.19
2023-01-30T13:03:40.350Z,101977.31
2023-01-30T13:06:39.432Z,101973.81
2023-01-30T13:09:19.965Z,101978.28
2023-01-30T13:12:04.569Z,101988.50
2023-01-30T13:14:55.636Z,101965.50
2023-01-30T13:17:31.291Z,101989.22
2023-01-30T13:20:16.493Z,101959.31
2023-01-30T13:22:57.913Z,101982.16
2023-01-30T13:25:54.180Z,101989.16
2023-01-30T13:28:26.135Z,101985.28
2023-01-30T13:30:55.165Z,101988.13
2023-01-30T13:33:30.745Z,101977.66
2023-01-30T13:36:10.418Z,101990.91
2023-01-30T13:38:43.214Z,101961.75
2023-01-30T13:41:15.001Z,101997.91
2023-01-30T13:43:47.818Z,102010.00
2023-01-30T13:46:20.434Z,102016.53
2023-01-30T13:48:55.722Z,102012.53
2023-01-30T13:51:48.089Z,102024.19
2023-01-30T13:54:17.643Z,102020.59
2023-01-30T13:57:01.757Z,102038.56
2023-01-30T13:59:37.405Z,102032.34
2023-01-30T14:02:04.202Z,102040.59
2023-01-30T14:04:47.001Z,102040.72
2023-01-30T14:07:31.066Z,102044.53
2023-01-30T14:10:09.847Z,102057.50
2023-01-30T14:13:13.245Z,102048.28
2023-01-30T14:15:52.728Z,102059.63
2023-01-30T14:18:25.199Z,102065.19
2023-01-30T14:21:22.678Z,102075.34
2023-01-30T14:24:01.840Z,102069.00
2023-01-30T14:26:56.242Z,102081.88
2023-01-30T14:29:38.138Z,102083.84
2023-01-30T14:32:38.735Z,102084.91
2023-01-30T14:35:06.512Z,102088.13
2023-01-30T14:37:39.027Z,102102.06
2023-01-30T14:40:37.861Z,102083.97
2023-01-30T14:43:15.713Z,102109.66
2023-01-30T14:45:48.875Z,102116.22
2023-01-30T14:48:27.911Z,102119.78
2023-01-30T14:51:22.702Z,102137.13
2023-01-30T14:53:56.376Z,102114.22
2023-01-30T14:56:36.682Z,102088.75
2023-01-30T14:59:07.676Z,102145.06
2023-01-30T15:01:57.651Z,102156.06
2023-01-30T15:04:45.941Z,102156.16
2023-01-30T15:07:24.755Z,102168.03
2023-01-30T15:10:01.176Z,102161.50
2023-01-30T15:12:48.062Z,102154.31
2023-01-30T15:15:32.736Z,102172.63
2023-01-30T15:18:08.428Z,102180.09
2023-01-30T15:20:47.381Z,102174.09
2023-01-30T15:23:47.432Z,102181.41
2023-01-30T15:26:47.529Z,102181.50
2023-01-30T15:29:34.359Z,102179.88
2023-01-30T15:32:03.669Z,102186.41
2023-01-30T15:34:32.413Z,102186.63
2023-01-30T15:36:59.076Z,102198.47
2023-01-30T15:39:28.329Z,102167.75
2023-01-30T15:42:05.262Z,102170.56
2023-01-30T15:44:48.552Z,102196.19
2023-01-30T15:47:15.117Z,102199.88
2023-01-30T15:50:02.546Z,102201.75
2023-01-30T15:52:40.623Z,102213.69
2023-01-30T15:55:15.624Z,102197.31
2023-01-30T15:57:47.865Z,102229.25
2023-01-30T16:00:33.424Z,102241.19
2023-01-30T16:03:04.790Z,102237.72
2023-01-30T16:05:31.434Z,102232.03
2023-01-30T16:08:09.439Z,102221.81
2023-01-30T16:10:44.910Z,102212.56
2023-01-30T16:13:11.588Z,102228.22
2023-01-30T16:15:50.275Z,102255.28
2023-01-30T16:18:32.291Z,102232.66
2023-01-30T16:21:05.431Z,102261.31
2023-01-30T16:23:37.476Z,102241.81
2023-01-30T16:26:09.977Z,102264.25
2023-01-30T16:28:36.737Z,102272.00
2023-01-30T16:31:09.709Z,102277.81
2023-01-30T16:33:37.460Z,102280.94
2023-01-30T16:36:27.147Z,102292.69
2023-01-30T16:38:55.273Z,102294.59
2023-01-30T16:41:35.680Z,102291.28
2023-01-30T16:44:17.556Z,102306.25
2023-01-30T16:47:02.733Z,102311.47
2023-01-30T16:49:39.355Z,102313.09
2023-01-30T16:52:19.960Z,102319.59
2023-01-30T16:54:54.965Z,102325.97
2023-01-30T16:57:41.936Z,102295.56
2023-01-30T17:00:23.014Z,102335.63
2023-01-30T17:02:58.678Z,102328.50
2023-01-30T17:05:42.874Z,102348.31
2023-01-30T17:08:49.426Z,102357.06
2023-01-30T17:11:31.613Z,102371.53
2023-01-30T17:14:26.507Z,102366.78
2023-01-30T17:17:15.688Z,102385.81
2023-01-30T17:19:42.249Z,102383.38
2023-01-30T17:22:20.641Z,102364.59
2023-01-30T17:24:47.315Z,102396.03
2023-01-30T17:27:15.138Z,102393.03
2023-01-30T17:29:46.002Z,102400.50
2023-01-30T17:32:15.390Z,102403.59
2023-01-30T17:34:42.165Z,102402.28
2023-01-30T17:37:17.566Z,102419.28
2023-01-30T17:39:44.456Z,102418.38
2023-01-30T17:42:12.349Z,102412.81
2023-01-30T17:44:40.045Z,102424.28
2023-01-30T17:47:09.262Z,102426.28
2023-01-30T17:49:35.866Z,102412.47
2023-01-30T17:52:02.439Z,102424.41
2023-01-30T17:54:31.768Z,102419.75
2023-01-30T17:57:04.342Z,102421.59
2023-01-30T17:59:31.608Z,102431.75
2023-01-30T18:01:59.185Z,102439.19
2023-01-30T18:04:25.790Z,102455.53
2023-01-30T18:07:04.002Z,102441.97
2023-01-30T18:09:33.159Z,102414.94
2023-01-30T18:11:59.812Z,102442.88
2023-01-30T18:14:26.594Z,102446.53
2023-01-30T18:17:00.143Z,102448.56
2023-01-30T18:19:31.682Z,102446.34
2023-01-30T18:22:00.795Z,102448.94
2023-01-30T18:24:28.253Z,102461.03
2023-01-30T18:26:54.840Z,102465.09
2023-01-30T18:29:21.608Z,102453.19
2023-01-30T18:31:50.837Z,102451.63
2023-01-30T18:34:17.515Z,102427.41
2023-01-30T18:36:44.117Z,102464.03
2023-01-30T18:39:12.082Z,102460.63
2023-01-30T18:41:41.138Z,102469.00
2023-01-30T18:44:10.685Z,102468.53
2023-01-30T18:46:39.829Z,102470.56
2023-01-30T18:49:08.296Z,102471.00
2023-01-30T18:51:37.041Z,102449.53
2023-01-30T18:54:03.718Z,102472.91
2023-01-30T18:56:33.187Z,102467.00
2023-01-30T18:59:05.384Z,102476.81
2023-01-30T19:01:35.745Z,102481.56
2023-01-30T19:04:07.362Z,102479.97
2023-01-30T19:06:37.436Z,102484.84
2023-01-30T19:09:05.204Z,102493.19
2023-01-30T19:11:50.397Z,102494.28
2023-01-30T19:14:16.964Z,102498.91
2023-01-30T19:16:43.752Z,102498.19
2023-01-30T19:19:10.839Z,102487.09
2023-01-30T19:21:37.593Z,102501.28
2023-01-30T19:24:06.839Z,102492.88
2023-01-30T19:26:34.482Z,102504.34
2023-01-30T19:29:03.683Z,102501.38
2023-01-30T19:31:30.379Z,102518.00
2023-01-30T19:34:01.766Z,102514.13
2023-01-30T19:36:31.776Z,102476.75
2023-01-30T19:38:59.829Z,102487.31
2023-01-30T19:41:29.320Z,102509.22
2023-01-30T19:43:57.594Z,102511.13
2023-01-30T19:46:24.534Z,102502.34
2023-01-30T19:48:51.361Z,102511.34
2023-01-30T19:51:21.193Z,102531.78
2023-01-30T19:53:53.990Z,102510.78
2023-01-30T19:56:22.502Z,102532.94
2023-01-30T19:58:52.603Z,102530.31
2023-01-30T20:01:21.377Z,102535.50
2023-01-30T20:03:48.740Z,102525.63
2023-01-30T20:06:23.018Z,102515.91
2023-01-30T20:08:54.698Z,102474.06
2023-01-30T20:11:24.307Z,102521.25
2023-01-30T20:13:51.873Z,102498.38
2023-01-30T20:16:22.857Z,102516.69
2023-01-30T20:18:55.869Z,102521.38
2023-01-30T20:21:23.901Z,102518.03
2023-01-30T20:23:53.069Z,102496.28
2023-01-30T20:26:23.498Z,102528.25
2023-01-30T20:28:50.655Z,102526.41
2023-01-30T20:31:20.672Z,102519.88
2023-01-30T20:33:50.396Z,102524.56
2023-01-30T20:36:21.762Z,102517.84
2023-01-30T20:38:49.747Z,102524.97
2023-01-30T20:41:19.093Z,102535.94
2023-01-30T20:43:49.449Z,102525.34
2023-01-30T20:46:25.338Z,102527.88
2023-01-30T20:48:54.494Z,102529.88
2023-01-30T20:51:24.847Z,102531.75
2023-01-30T20:53:53.965Z,102489.44
2023-01-30T20:56:21.938Z,102526.41
2023-01-30T20:58:49.095Z,102531.03
2023-01-30T21:01:21.484Z,102475.16
2023-01-30T21:03:52.579Z,102531.47
2023-01-30T21:06:41.753Z,102547.72
2023-01-30T21:09:11.849Z,102541.66
2023-01-30T21:11:39.033Z,102546.34
2023-01-30T21:14:06.179Z,102549.06
2023-01-30T21:16:34.008Z,102544.50
2023-01-30T21:19:04.101Z,102547.78
2023-01-30T21:21:39.203Z,102548.97
2023-01-30T21:24:12.741Z,102560.09
2023-01-30T21:26:46.038Z,102556.88
2023-01-30T21:29:15.503Z,102555.44
2023-01-30T21:31:44.538Z,102561.84
2023-01-30T21:34:14.195Z,102575.59
2023-01-30T21:37:02.997Z,102573.00
2023-01-30T21:39:48.239Z,102576.00
2023-01-30T21:42:33.150Z,102572.78
2023-01-30T21:45:01.099Z,102552.59
2023-01-30T21:47:27.698Z,102572.91
2023-01-30T21:49:54.877Z,102568.66
2023-01-30T21:52:21.456Z,102564.34
2023-01-30T21:54:48.016Z,102560.91
2023-01-30T21:57:14.596Z,102540.94
2023-01-30T21:59:41.209Z,102570.19
2023-01-30T22:02:09.703Z,102555.59
2023-01-30T22:04:36.650Z,102581.41
2023-01-30T22:07:05.751Z,102582.53
2023-01-30T22:09:33.304Z,102573.69
2023-01-30T22:11:59.820Z,102574.84
2023-01-30T22:14:29.318Z,102585.78
2023-01-30T22:16:55.914Z,102565.19
2023-01-30T22:19:22.455Z,102584.44
2023-01-30T22:21:51.620Z,102566.13
2023-01-30T22:24:18.201Z,102577.53
2023-01-30T22:26:44.829Z,102578.47
2023-01-30T22:29:11.539Z,102578.63
2023-01-30T22:31:40.459Z,102576.03
2023-01-30T22:34:07.469Z,102571.69
2023-01-30T22:36:35.316Z,102576.38
2023-01-30T22:39:07.829Z,102575.56
2023-01-30T22:41:38.702Z,102569.31
2023-01-30T22:44:07.950Z,102573.13
2023-01-30T22:46:39.721Z,102578.50
2023-01-30T22:49:09.595Z,102574.09
2023-01-30T22:51:39.464Z,102427.59
2023-01-30T22:54:10.087Z,102569.84
2023-01-30T22:56:40.687Z,102569.91
2023-01-30T22:59:08.527Z,102570.03
2023-01-30T23:01:40.717Z,102555.88
2023-01-30T23:04:18.761Z,102555.03
2023-01-30T23:06:46.369Z,102513.00
2023-01-30T23:09:18.545Z,102560.44
2023-01-30T23:12:12.890Z,102563.28
2023-01-30T23:14:40.065Z,102547.56
2023-01-30T23:17:26.564Z,102559.75
2023-01-30T23:19:54.531Z,102529.69
2023-01-30T23:22:21.534Z,102545.56
2023-01-30T23:24:48.769Z,102546.50
2023-01-30T23:27:15.471Z,102548.50
2023-01-30T23:29:42.301Z,102549.34
2023-01-30T23:32:08.945Z,102535.00
2023-01-30T23:34:35.891Z,102533.34
2023-01-30T23:37:02.700Z,102503.66
2023-01-30T23:39:29.266Z,102544.44
2023-01-30T23:41:55.863Z,102540.09
2023-01-30T23:44:24.960Z,102533.06
2023-01-30T23:46:51.676Z,102533.06
2023-01-30T23:49:18.248Z,102528.72
2023-01-30T23:51:45.251Z,102529.75
2023-01-30T23:54:13.332Z,102519.94
2023-01-30T23:56:42.503Z,102522.75
2023-01-30T23:59:09.321Z,102535.38
